sensor_id;sensor_type;location;lat;lon;timestamp;P1;durP1;ratioP1;P2;durP2;ratioP2
13816;SDS011;6979;52.116;5.286;2023-06-26T00:00:14;7.27;;;6.77;;
13816;SDS011;6979;52.116;5.286;2023-06-26T00:02:41;7.47;;;6.97;;
13816;SDS011;6979;52.116;5.286;2023-06-26T00:05:08;6.47;;;6.07;;
13816;SDS011;6979;52.116;5.286;2023-06-26T00:07:35;7.80;;;7.10;;
13816;SDS011;6979;52.116;5.286;2023-06-26T00:10:03;7.47;;;6.97;;
13816;SDS011;6979;52.116;5.286;2023-06-26T00:12:31;7.00;;;6.50;;
13816;SDS011;6979;52.116;5.286;2023-06-26T00:14:59;7.73;;;7.10;;
13816;SDS011;6979;52.116;5.286;2023-06-26T00:17:27;7.13;;;6.73;;
13816;SDS011;6979;52.116;5.286;2023-06-26T00:19:53;7.53;;;6.93;;
13816;SDS011;6979;52.116;5.286;2023-06-26T00:22:21;7.60;;;7.00;;
13816;SDS011;6979;52.116;5.286;2023-06-26T00:24:48;7.10;;;6.60;;
13816;SDS011;6979;52.116;5.286;2023-06-26T00:27:15;7.93;;;7.43;;
13816;SDS011;6979;52.116;5.286;2023-06-26T00:29:43;7.73;;;7.23;;
13816;SDS011;6979;52.116;5.286;2023-06-26T00:32:11;7.23;;;6.73;;
13816;SDS011;6979;52.116;5.286;2023-06-26T00:34:38;7.00;;;6.53;;
13816;SDS011;6979;52.116;5.286;2023-06-26T00:37:05;7.07;;;6.57;;
13816;SDS011;6979;52.116;5.286;2023-06-26T00:39:32;7.27;;;6.67;;
13816;SDS011;6979;52.116;5.286;2023-06-26T00:42:00;7.57;;;6.70;;
13816;SDS011;6979;52.116;5.286;2023-06-26T00:44:28;7.53;;;7.07;;
13816;SDS011;6979;52.116;5.286;2023-06-26T00:46:55;7.27;;;6.80;;
13816;SDS011;6979;52.116;5.286;2023-06-26T00:49:24;8.53;;;7.93;;
13816;SDS011;6979;52.116;5.286;2023-06-26T00:51:51;8.17;;;7.63;;
13816;SDS011;6979;52.116;5.286;2023-06-26T00:54:19;8.10;;;7.60;;
13816;SDS011;6979;52.116;5.286;2023-06-26T00:56:47;7.90;;;7.40;;
13816;SDS011;6979;52.116;5.286;2023-06-26T00:59:14;8.20;;;7.47;;
13816;SDS011;6979;52.116;5.286;2023-06-26T01:01:41;7.87;;;7.37;;
13816;SDS011;6979;52.116;5.286;2023-06-26T01:04:09;8.10;;;7.60;;
13816;SDS011;6979;52.116;5.286;2023-06-26T01:06:44;7.50;;;7.00;;
13816;SDS011;6979;52.116;5.286;2023-06-26T01:09:17;7.47;;;6.97;;
13816;SDS011;6979;52.116;5.286;2023-06-26T01:11:45;7.80;;;7.30;;
13816;SDS011;6979;52.116;5.286;2023-06-26T01:14:14;8.00;;;7.50;;
13816;SDS011;6979;52.116;5.286;2023-06-26T01:16:41;6.90;;;6.50;;
13816;SDS011;6979;52.116;5.286;2023-06-26T01:19:13;7.47;;;6.97;;
13816;SDS011;6979;52.116;5.286;2023-06-26T01:21:54;7.77;;;7.17;;
13816;SDS011;6979;52.116;5.286;2023-06-26T01:24:28;7.07;;;6.57;;
13816;SDS011;6979;52.116;5.286;2023-06-26T01:27:03;6.27;;;5.87;;
13816;SDS011;6979;52.116;5.286;2023-06-26T01:29:31;6.17;;;5.77;;
13816;SDS011;6979;52.116;5.286;2023-06-26T01:31:59;6.43;;;6.03;;
13816;SDS011;6979;52.116;5.286;2023-06-26T01:34:27;5.93;;;5.53;;
13816;SDS011;6979;52.116;5.286;2023-06-26T01:36:55;6.63;;;6.13;;
13816;SDS011;6979;52.116;5.286;2023-06-26T01:39:22;6.10;;;5.70;;
13816;SDS011;6979;52.116;5.286;2023-06-26T01:41:49;5.57;;;5.17;;
13816;SDS011;6979;52.116;5.286;2023-06-26T01:44:23;5.73;;;5.10;;
13816;SDS011;6979;52.116;5.286;2023-06-26T01:46:55;5.50;;;5.20;;
13816;SDS011;6979;52.116;5.286;2023-06-26T01:49:31;5.20;;;4.80;;
13816;SDS011;6979;52.116;5.286;2023-06-26T01:52:12;5.23;;;4.90;;
13816;SDS011;6979;52.116;5.286;2023-06-26T01:54:47;4.97;;;4.60;;
13816;SDS011;6979;52.116;5.286;2023-06-26T01:57:20;5.53;;;5.13;;
13816;SDS011;6979;52.116;5.286;2023-06-26T01:59:51;5.53;;;4.93;;
13816;SDS011;6979;52.116;5.286;2023-06-26T02:02:18;5.27;;;4.87;;
13816;SDS011;6979;52.116;5.286;2023-06-26T02:04:45;4.70;;;4.30;;
13816;SDS011;6979;52.116;5.286;2023-06-26T02:07:14;5.40;;;5.00;;
13816;SDS011;6979;52.116;5.286;2023-06-26T02:09:41;5.60;;;5.10;;
13816;SDS011;6979;52.116;5.286;2023-06-26T02:12:09;7.10;;;5.20;;
13816;SDS011;6979;52.116;5.286;2023-06-26T02:14:36;5.23;;;4.83;;
13816;SDS011;6979;52.116;5.286;2023-06-26T02:17:05;4.83;;;4.43;;
13816;SDS011;6979;52.116;5.286;2023-06-26T02:19:32;4.97;;;4.60;;
13816;SDS011;6979;52.116;5.286;2023-06-26T02:21:59;5.10;;;4.70;;
13816;SDS011;6979;52.116;5.286;2023-06-26T02:24:26;5.00;;;4.50;;
13816;SDS011;6979;52.116;5.286;2023-06-26T02:26:57;5.37;;;4.90;;
13816;SDS011;6979;52.116;5.286;2023-06-26T02:29:23;6.17;;;4.63;;
13816;SDS011;6979;52.116;5.286;2023-06-26T02:31:50;5.13;;;4.40;;
13816;SDS011;6979;52.116;5.286;2023-06-26T02:34:19;6.03;;;4.33;;
13816;SDS011;6979;52.116;5.286;2023-06-26T02:36:46;5.90;;;5.30;;
13816;SDS011;6979;52.116;5.286;2023-06-26T02:39:13;5.13;;;4.60;;
13816;SDS011;6979;52.116;5.286;2023-06-26T02:41:40;5.53;;;4.80;;
13816;SDS011;6979;52.116;5.286;2023-06-26T02:44:09;4.90;;;4.50;;
13816;SDS011;6979;52.116;5.286;2023-06-26T02:46:36;4.53;;;4.10;;
13816;SDS011;6979;52.116;5.286;2023-06-26T02:49:03;6.37;;;5.00;;
13816;SDS011;6979;52.116;5.286;2023-06-26T02:51:32;6.57;;;4.93;;
13816;SDS011;6979;52.116;5.286;2023-06-26T02:54:05;6.13;;;4.93;;
13816;SDS011;6979;52.116;5.286;2023-06-26T02:56:32;5.20;;;4.50;;
13816;SDS011;6979;52.116;5.286;2023-06-26T02:58:59;6.03;;;4.20;;
13816;SDS011;6979;52.116;5.286;2023-06-26T03:01:27;5.13;;;4.73;;
13816;SDS011;6979;52.116;5.286;2023-06-26T03:03:55;5.40;;;4.50;;
13816;SDS011;6979;52.116;5.286;2023-06-26T03:06:22;6.47;;;5.40;;
13816;SDS011;6979;52.116;5.286;2023-06-26T03:08:50;10.40;;;4.70;;
13816;SDS011;6979;52.116;5.286;2023-06-26T03:11:17;5.33;;;4.90;;
13816;SDS011;6979;52.116;5.286;2023-06-26T03:13:44;5.03;;;4.57;;
13816;SDS011;6979;52.116;5.286;2023-06-26T03:16:12;6.40;;;5.13;;
13816;SDS011;6979;52.116;5.286;2023-06-26T03:18:39;6.67;;;4.10;;
13816;SDS011;6979;52.116;5.286;2023-06-26T03:21:06;8.17;;;5.13;;
13816;SDS011;6979;52.116;5.286;2023-06-26T03:23:34;8.00;;;5.17;;
13816;SDS011;6979;52.116;5.286;2023-06-26T03:26:03;10.13;;;5.50;;
13816;SDS011;6979;52.116;5.286;2023-06-26T03:28:32;6.00;;;5.00;;
13816;SDS011;6979;52.116;5.286;2023-06-26T03:31:01;6.40;;;4.73;;
13816;SDS011;6979;52.116;5.286;2023-06-26T03:33:29;5.83;;;5.07;;
13816;SDS011;6979;52.116;5.286;2023-06-26T03:35:57;6.77;;;5.17;;
13816;SDS011;6979;52.116;5.286;2023-06-26T03:38:24;5.77;;;5.20;;
13816;SDS011;6979;52.116;5.286;2023-06-26T03:40:54;5.97;;;4.70;;
13816;SDS011;6979;52.116;5.286;2023-06-26T03:43:22;5.93;;;4.87;;
13816;SDS011;6979;52.116;5.286;2023-06-26T03:46:01;6.43;;;4.73;;
13816;SDS011;6979;52.116;5.286;2023-06-26T03:48:30;8.00;;;5.90;;
13816;SDS011;6979;52.116;5.286;2023-06-26T03:50:57;5.80;;;4.60;;
13816;SDS011;6979;52.116;5.286;2023-06-26T03:53:27;5.43;;;4.67;;
13816;SDS011;6979;52.116;5.286;2023-06-26T03:55:54;6.23;;;5.43;;
13816;SDS011;6979;52.116;5.286;2023-06-26T03:58:23;6.27;;;5.07;;
13816;SDS011;6979;52.116;5.286;2023-06-26T04:00:51;8.33;;;5.50;;
13816;SDS011;6979;52.116;5.286;2023-06-26T04:03:18;6.20;;;5.60;;
13816;SDS011;6979;52.116;5.286;2023-06-26T04:05:46;5.70;;;5.00;;
13816;SDS011;6979;52.116;5.286;2023-06-26T04:08:13;7.20;;;5.60;;
13816;SDS011;6979;52.116;5.286;2023-06-26T04:10:40;10.03;;;5.37;;
13816;SDS011;6979;52.116;5.286;2023-06-26T04:13:06;10.40;;;6.00;;
13816;SDS011;6979;52.116;5.286;2023-06-26T04:15:35;8.70;;;4.60;;
13816;SDS011;6979;52.116;5.286;2023-06-26T04:18:02;7.43;;;5.27;;
13816;SDS011;6979;52.116;5.286;2023-06-26T04:20:29;7.47;;;4.83;;
13816;SDS011;6979;52.116;5.286;2023-06-26T04:22:56;5.00;;;4.50;;
13816;SDS011;6979;52.116;5.286;2023-06-26T04:25:23;7.57;;;5.23;;
13816;SDS011;6979;52.116;5.286;2023-06-26T04:27:54;5.27;;;4.37;;
13816;SDS011;6979;52.116;5.286;2023-06-26T04:30:21;5.13;;;4.63;;
13816;SDS011;6979;52.116;5.286;2023-06-26T04:32:49;5.53;;;4.73;;
13816;SDS011;6979;52.116;5.286;2023-06-26T04:35:16;8.50;;;5.10;;
13816;SDS011;6979;52.116;5.286;2023-06-26T04:37:43;12.27;;;4.93;;
13816;SDS011;6979;52.116;5.286;2023-06-26T04:40:10;6.13;;;4.63;;
13816;SDS011;6979;52.116;5.286;2023-06-26T04:42:37;4.30;;;3.87;;
13816;SDS011;6979;52.116;5.286;2023-06-26T04:45:05;7.70;;;4.90;;
13816;SDS011;6979;52.116;5.286;2023-06-26T04:47:32;5.80;;;4.27;;
13816;SDS011;6979;52.116;5.286;2023-06-26T04:50:01;6.23;;;4.53;;
13816;SDS011;6979;52.116;5.286;2023-06-26T04:52:27;5.10;;;4.60;;
13816;SDS011;6979;52.116;5.286;2023-06-26T04:54:54;5.50;;;4.17;;
13816;SDS011;6979;52.116;5.286;2023-06-26T04:57:21;7.07;;;5.03;;
13816;SDS011;6979;52.116;5.286;2023-06-26T04:59:48;5.83;;;3.80;;
13816;SDS011;6979;52.116;5.286;2023-06-26T05:02:15;5.20;;;4.33;;
13816;SDS011;6979;52.116;5.286;2023-06-26T05:04:42;4.43;;;4.03;;
13816;SDS011;6979;52.116;5.286;2023-06-26T05:07:11;4.50;;;4.10;;
13816;SDS011;6979;52.116;5.286;2023-06-26T05:09:38;5.07;;;3.73;;
13816;SDS011;6979;52.116;5.286;2023-06-26T05:12:05;4.77;;;4.00;;
13816;SDS011;6979;52.116;5.286;2023-06-26T05:14:32;5.00;;;4.27;;
13816;SDS011;6979;52.116;5.286;2023-06-26T05:16:59;5.13;;;3.80;;
13816;SDS011;6979;52.116;5.286;2023-06-26T05:19:26;4.40;;;4.00;;
13816;SDS011;6979;52.116;5.286;2023-06-26T05:21:53;3.80;;;3.27;;
13816;SDS011;6979;52.116;5.286;2023-06-26T05:24:22;4.70;;;3.53;;
13816;SDS011;6979;52.116;5.286;2023-06-26T05:26:50;4.47;;;4.03;;
13816;SDS011;6979;52.116;5.286;2023-06-26T05:29:18;4.80;;;3.37;;
13816;SDS011;6979;52.116;5.286;2023-06-26T05:31:45;4.17;;;3.57;;
13816;SDS011;6979;52.116;5.286;2023-06-26T05:34:15;5.37;;;3.47;;
13816;SDS011;6979;52.116;5.286;2023-06-26T05:36:44;3.97;;;3.20;;
13816;SDS011;6979;52.116;5.286;2023-06-26T05:39:13;3.97;;;3.33;;
13816;SDS011;6979;52.116;5.286;2023-06-26T05:41:42;4.23;;;3.60;;
13816;SDS011;6979;52.116;5.286;2023-06-26T05:44:10;5.03;;;3.63;;
13816;SDS011;6979;52.116;5.286;2023-06-26T05:46:37;4.10;;;3.00;;
13816;SDS011;6979;52.116;5.286;2023-06-26T05:49:04;3.70;;;3.40;;
13816;SDS011;6979;52.116;5.286;2023-06-26T05:51:31;3.97;;;3.50;;
13816;SDS011;6979;52.116;5.286;2023-06-26T05:53:58;3.43;;;3.10;;
13816;SDS011;6979;52.116;5.286;2023-06-26T05:56:26;3.50;;;3.20;;
13816;SDS011;6979;52.116;5.286;2023-06-26T05:58:55;3.23;;;2.93;;
13816;SDS011;6979;52.116;5.286;2023-06-26T06:01:23;2.80;;;2.60;;
13816;SDS011;6979;52.116;5.286;2023-06-26T06:03:50;3.63;;;2.63;;
13816;SDS011;6979;52.116;5.286;2023-06-26T06:06:17;3.00;;;2.70;;
13816;SDS011;6979;52.116;5.286;2023-06-26T06:08:44;3.17;;;2.87;;
13816;SDS011;6979;52.116;5.286;2023-06-26T06:11:11;2.73;;;2.53;;
13816;SDS011;6979;52.116;5.286;2023-06-26T06:13:41;3.10;;;2.80;;
13816;SDS011;6979;52.116;5.286;2023-06-26T06:16:09;3.40;;;3.10;;
13816;SDS011;6979;52.116;5.286;2023-06-26T06:18:36;3.00;;;2.77;;
13816;SDS011;6979;52.116;5.286;2023-06-26T06:21:03;3.53;;;3.23;;
13816;SDS011;6979;52.116;5.286;2023-06-26T06:23:30;3.10;;;2.80;;
13816;SDS011;6979;52.116;5.286;2023-06-26T06:25:57;3.13;;;2.83;;
13816;SDS011;6979;52.116;5.286;2023-06-26T06:28:34;4.53;;;2.90;;
13816;SDS011;6979;52.116;5.286;2023-06-26T06:31:01;3.50;;;2.53;;
13816;SDS011;6979;52.116;5.286;2023-06-26T06:33:29;3.30;;;3.10;;
13816;SDS011;6979;52.116;5.286;2023-06-26T06:35:56;2.80;;;2.60;;
13816;SDS011;6979;52.116;5.286;2023-06-26T06:38:23;3.70;;;3.17;;
13816;SDS011;6979;52.116;5.286;2023-06-26T06:40:50;2.83;;;2.63;;
13816;SDS011;6979;52.116;5.286;2023-06-26T06:43:17;2.57;;;2.37;;
13816;SDS011;6979;52.116;5.286;2023-06-26T06:45:44;3.23;;;2.90;;
13816;SDS011;6979;52.116;5.286;2023-06-26T06:48:11;2.93;;;2.70;;
13816;SDS011;6979;52.116;5.286;2023-06-26T06:50:40;3.27;;;2.97;;
13816;SDS011;6979;52.116;5.286;2023-06-26T06:53:07;4.53;;;4.13;;
13816;SDS011;6979;52.116;5.286;2023-06-26T06:55:34;4.87;;;3.40;;
13816;SDS011;6979;52.116;5.286;2023-06-26T06:58:01;5.03;;;3.47;;
13816;SDS011;6979;52.116;5.286;2023-06-26T07:00:28;3.17;;;2.97;;
13816;SDS011;6979;52.116;5.286;2023-06-26T07:02:56;3.90;;;3.30;;
13816;SDS011;6979;52.116;5.286;2023-06-26T07:05:25;4.00;;;3.70;;
13816;SDS011;6979;52.116;5.286;2023-06-26T07:07:53;4.03;;;3.63;;
13816;SDS011;6979;52.116;5.286;2023-06-26T07:10:20;3.80;;;3.50;;
13816;SDS011;6979;52.116;5.286;2023-06-26T07:12:47;3.33;;;3.03;;
13816;SDS011;6979;52.116;5.286;2023-06-26T07:15:14;3.30;;;3.07;;
13816;SDS011;6979;52.116;5.286;2023-06-26T07:17:41;3.90;;;3.50;;
13816;SDS011;6979;52.116;5.286;2023-06-26T07:20:09;2.57;;;2.37;;
13816;SDS011;6979;52.116;5.286;2023-06-26T07:22:40;3.90;;;2.80;;
13816;SDS011;6979;52.116;5.286;2023-06-26T07:25:09;3.50;;;3.20;;
13816;SDS011;6979;52.116;5.286;2023-06-26T07:27:36;7.00;;;3.23;;
13816;SDS011;6979;52.116;5.286;2023-06-26T07:30:03;2.97;;;2.67;;
13816;SDS011;6979;52.116;5.286;2023-06-26T07:32:31;3.10;;;2.80;;
13816;SDS011;6979;52.116;5.286;2023-06-26T07:34:58;4.93;;;3.70;;
13816;SDS011;6979;52.116;5.286;2023-06-26T07:37:25;3.23;;;2.93;;
13816;SDS011;6979;52.116;5.286;2023-06-26T07:39:51;3.87;;;3.20;;
13816;SDS011;6979;52.116;5.286;2023-06-26T07:42:21;2.87;;;2.67;;
13816;SDS011;6979;52.116;5.286;2023-06-26T07:44:48;6.13;;;3.17;;
13816;SDS011;6979;52.116;5.286;2023-06-26T07:47:15;3.23;;;2.87;;
13816;SDS011;6979;52.116;5.286;2023-06-26T07:49:42;3.97;;;2.50;;
13816;SDS011;6979;52.116;5.286;2023-06-26T07:52:09;3.23;;;2.90;;
13816;SDS011;6979;52.116;5.286;2023-06-26T07:54:36;3.00;;;2.80;;
13816;SDS011;6979;52.116;5.286;2023-06-26T07:57:03;3.13;;;2.87;;
13816;SDS011;6979;52.116;5.286;2023-06-26T07:59:35;3.53;;;3.23;;
13816;SDS011;6979;52.116;5.286;2023-06-26T08:02:02;3.40;;;3.00;;
13816;SDS011;6979;52.116;5.286;2023-06-26T08:04:29;3.73;;;2.73;;
13816;SDS011;6979;52.116;5.286;2023-06-26T08:06:57;4.13;;;2.93;;
13816;SDS011;6979;52.116;5.286;2023-06-26T08:09:25;4.03;;;3.43;;
13816;SDS011;6979;52.116;5.286;2023-06-26T08:11:53;3.40;;;2.70;;
13816;SDS011;6979;52.116;5.286;2023-06-26T08:14:20;3.97;;;2.87;;
13816;SDS011;6979;52.116;5.286;2023-06-26T08:16:49;6.57;;;2.80;;
13816;SDS011;6979;52.116;5.286;2023-06-26T08:19:16;5.27;;;2.90;;
13816;SDS011;6979;52.116;5.286;2023-06-26T08:21:44;4.60;;;2.30;;
13816;SDS011;6979;52.116;5.286;2023-06-26T08:24:11;2.37;;;2.10;;
13816;SDS011;6979;52.116;5.286;2023-06-26T08:26:41;2.70;;;2.40;;
13816;SDS011;6979;52.116;5.286;2023-06-26T08:29:08;3.67;;;1.70;;
13816;SDS011;6979;52.116;5.286;2023-06-26T08:31:35;3.67;;;1.90;;
13816;SDS011;6979;52.116;5.286;2023-06-26T08:34:04;4.40;;;2.23;;
13816;SDS011;6979;52.116;5.286;2023-06-26T08:36:31;2.57;;;2.10;;
13816;SDS011;6979;52.116;5.286;2023-06-26T08:38:58;1.90;;;1.73;;
13816;SDS011;6979;52.116;5.286;2023-06-26T08:41:25;2.10;;;1.90;;
13816;SDS011;6979;52.116;5.286;2023-06-26T08:43:52;2.23;;;1.90;;
13816;SDS011;6979;52.116;5.286;2023-06-26T08:46:19;2.30;;;1.80;;
13816;SDS011;6979;52.116;5.286;2023-06-26T08:48:48;3.10;;;2.20;;
13816;SDS011;6979;52.116;5.286;2023-06-26T08:51:17;2.27;;;1.97;;
13816;SDS011;6979;52.116;5.286;2023-06-26T08:53:49;2.10;;;1.70;;
13816;SDS011;6979;52.116;5.286;2023-06-26T08:56:22;5.23;;;2.30;;
13816;SDS011;6979;52.116;5.286;2023-06-26T08:58:50;3.07;;;1.60;;
13816;SDS011;6979;52.116;5.286;2023-06-26T09:01:18;3.87;;;1.90;;
13816;SDS011;6979;52.116;5.286;2023-06-26T09:03:45;2.33;;;1.80;;
13816;SDS011;6979;52.116;5.286;2023-06-26T09:06:11;3.57;;;1.90;;
13816;SDS011;6979;52.116;5.286;2023-06-26T09:08:40;2.27;;;1.77;;
13816;SDS011;6979;52.116;5.286;2023-06-26T09:11:07;2.50;;;1.90;;
13816;SDS011;6979;52.116;5.286;2023-06-26T09:13:34;1.97;;;1.77;;
13816;SDS011;6979;52.116;5.286;2023-06-26T09:16:04;2.40;;;1.77;;
13816;SDS011;6979;52.116;5.286;2023-06-26T09:18:33;4.23;;;2.10;;
13816;SDS011;6979;52.116;5.286;2023-06-26T09:21:04;4.00;;;3.60;;
13816;SDS011;6979;52.116;5.286;2023-06-26T09:23:33;2.50;;;2.07;;
13816;SDS011;6979;52.116;5.286;2023-06-26T09:26:03;2.40;;;2.20;;
13816;SDS011;6979;52.116;5.286;2023-06-26T09:28:31;2.63;;;1.80;;
13816;SDS011;6979;52.116;5.286;2023-06-26T09:31:02;2.97;;;2.10;;
13816;SDS011;6979;52.116;5.286;2023-06-26T09:33:33;2.03;;;1.67;;
13816;SDS011;6979;52.116;5.286;2023-06-26T09:36:02;1.73;;;1.63;;
13816;SDS011;6979;52.116;5.286;2023-06-26T09:38:32;2.53;;;2.33;;
13816;SDS011;6979;52.116;5.286;2023-06-26T09:41:00;4.37;;;2.10;;
13816;SDS011;6979;52.116;5.286;2023-06-26T09:43:29;2.70;;;1.77;;
13816;SDS011;6979;52.116;5.286;2023-06-26T09:45:57;3.03;;;1.73;;
13816;SDS011;6979;52.116;5.286;2023-06-26T09:48:24;3.07;;;1.60;;
13816;SDS011;6979;52.116;5.286;2023-06-26T09:50:51;4.73;;;1.87;;
13816;SDS011;6979;52.116;5.286;2023-06-26T09:53:20;2.53;;;2.13;;
13816;SDS011;6979;52.116;5.286;2023-06-26T09:55:47;2.53;;;1.80;;
13816;SDS011;6979;52.116;5.286;2023-06-26T09:58:15;3.20;;;1.63;;
13816;SDS011;6979;52.116;5.286;2023-06-26T10:00:45;2.13;;;1.73;;
13816;SDS011;6979;52.116;5.286;2023-06-26T10:03:12;1.80;;;1.60;;
13816;SDS011;6979;52.116;5.286;2023-06-26T10:05:39;1.57;;;1.47;;
13816;SDS011;6979;52.116;5.286;2023-06-26T10:08:06;2.77;;;1.63;;
13816;SDS011;6979;52.116;5.286;2023-06-26T10:10:35;2.10;;;1.90;;
13816;SDS011;6979;52.116;5.286;2023-06-26T10:13:04;1.93;;;1.63;;
13816;SDS011;6979;52.116;5.286;2023-06-26T10:15:37;1.47;;;1.37;;
13816;SDS011;6979;52.116;5.286;2023-06-26T10:18:07;2.00;;;1.40;;
13816;SDS011;6979;52.116;5.286;2023-06-26T10:20:35;2.53;;;1.63;;
13816;SDS011;6979;52.116;5.286;2023-06-26T10:23:03;2.60;;;1.53;;
13816;SDS011;6979;52.116;5.286;2023-06-26T10:25:34;2.67;;;1.73;;
13816;SDS011;6979;52.116;5.286;2023-06-26T10:28:07;2.90;;;1.53;;
13816;SDS011;6979;52.116;5.286;2023-06-26T10:30:37;1.80;;;1.63;;
13816;SDS011;6979;52.116;5.286;2023-06-26T10:33:07;1.53;;;1.20;;
13816;SDS011;6979;52.116;5.286;2023-06-26T10:35:40;2.07;;;1.70;;
13816;SDS011;6979;52.116;5.286;2023-06-26T10:38:08;1.77;;;1.40;;
13816;SDS011;6979;52.116;5.286;2023-06-26T10:40:42;1.87;;;1.50;;
13816;SDS011;6979;52.116;5.286;2023-06-26T10:43:11;2.63;;;1.30;;
13816;SDS011;6979;52.116;5.286;2023-06-26T10:45:43;4.63;;;1.80;;
13816;SDS011;6979;52.116;5.286;2023-06-26T10:48:14;2.17;;;1.70;;
13816;SDS011;6979;52.116;5.286;2023-06-26T10:50:42;3.70;;;1.70;;
13816;SDS011;6979;52.116;5.286;2023-06-26T10:53:16;2.17;;;1.60;;
13816;SDS011;6979;52.116;5.286;2023-06-26T10:55:55;1.73;;;1.57;;
13816;SDS011;6979;52.116;5.286;2023-06-26T10:58:31;1.50;;;1.40;;
13816;SDS011;6979;52.116;5.286;2023-06-26T11:01:14;2.87;;;1.40;;
13816;SDS011;6979;52.116;5.286;2023-06-26T11:03:46;1.50;;;1.40;;
13816;SDS011;6979;52.116;5.286;2023-06-26T11:06:17;1.90;;;1.80;;
13816;SDS011;6979;52.116;5.286;2023-06-26T11:08:45;2.00;;;1.40;;
13816;SDS011;6979;52.116;5.286;2023-06-26T11:11:12;1.60;;;1.50;;
13816;SDS011;6979;52.116;5.286;2023-06-26T11:13:39;1.60;;;1.50;;
13816;SDS011;6979;52.116;5.286;2023-06-26T11:16:06;1.37;;;1.27;;
13816;SDS011;6979;52.116;5.286;2023-06-26T11:18:33;2.33;;;1.60;;
13816;SDS011;6979;52.116;5.286;2023-06-26T11:21:06;2.80;;;1.43;;
13816;SDS011;6979;52.116;5.286;2023-06-26T11:23:33;1.50;;;1.40;;
13816;SDS011;6979;52.116;5.286;2023-06-26T11:26:17;1.50;;;1.40;;
13816;SDS011;6979;52.116;5.286;2023-06-26T11:28:49;1.47;;;1.37;;
13816;SDS011;6979;52.116;5.286;2023-06-26T11:31:23;1.73;;;1.30;;
13816;SDS011;6979;52.116;5.286;2023-06-26T11:33:51;1.23;;;1.20;;
13816;SDS011;6979;52.116;5.286;2023-06-26T11:36:20;1.90;;;1.50;;
13816;SDS011;6979;52.116;5.286;2023-06-26T11:38:52;2.00;;;1.50;;
13816;SDS011;6979;52.116;5.286;2023-06-26T11:41:20;1.50;;;1.37;;
13816;SDS011;6979;52.116;5.286;2023-06-26T11:43:47;1.53;;;1.13;;
13816;SDS011;6979;52.116;5.286;2023-06-26T11:46:15;2.97;;;1.33;;
13816;SDS011;6979;52.116;5.286;2023-06-26T11:48:43;2.13;;;1.43;;
13816;SDS011;6979;52.116;5.286;2023-06-26T11:51:12;2.13;;;1.47;;
13816;SDS011;6979;52.116;5.286;2023-06-26T11:53:41;2.20;;;0.97;;
13816;SDS011;6979;52.116;5.286;2023-06-26T11:56:09;2.20;;;1.30;;
13816;SDS011;6979;52.116;5.286;2023-06-26T12:01:22;1.73;;;1.10;;
13816;SDS011;6979;52.116;5.286;2023-06-26T12:03:49;1.70;;;1.30;;
13816;SDS011;6979;52.116;5.286;2023-06-26T12:06:16;1.43;;;1.33;;
13816;SDS011;6979;52.116;5.286;2023-06-26T12:08:45;1.23;;;1.13;;
13816;SDS011;6979;52.116;5.286;2023-06-26T12:11:12;1.97;;;1.67;;
13816;SDS011;6979;52.116;5.286;2023-06-26T12:13:40;1.67;;;1.20;;
13816;SDS011;6979;52.116;5.286;2023-06-26T12:16:07;1.20;;;1.20;;
13816;SDS011;6979;52.116;5.286;2023-06-26T12:18:34;3.70;;;1.30;;
13816;SDS011;6979;52.116;5.286;2023-06-26T12:21:02;1.40;;;1.17;;
13816;SDS011;6979;52.116;5.286;2023-06-26T12:23:32;1.77;;;1.23;;
13816;SDS011;6979;52.116;5.286;2023-06-26T12:29:02;1.40;;;1.30;;
13816;SDS011;6979;52.116;5.286;2023-06-26T12:31:30;1.10;;;1.00;;
13816;SDS011;6979;52.116;5.286;2023-06-26T12:34:08;1.10;;;1.10;;
13816;SDS011;6979;52.116;5.286;2023-06-26T12:36:39;1.03;;;1.03;;
13816;SDS011;6979;52.116;5.286;2023-06-26T12:39:08;1.60;;;1.13;;
13816;SDS011;6979;52.116;5.286;2023-06-26T12:41:43;1.27;;;1.00;;
13816;SDS011;6979;52.116;5.286;2023-06-26T12:44:19;3.10;;;1.27;;
13816;SDS011;6979;52.116;5.286;2023-06-26T12:46:47;2.13;;;1.00;;
13816;SDS011;6979;52.116;5.286;2023-06-26T12:49:15;2.90;;;1.50;;
13816;SDS011;6979;52.116;5.286;2023-06-26T12:51:43;1.63;;;1.00;;
13816;SDS011;6979;52.116;5.286;2023-06-26T12:54:10;2.83;;;1.50;;
13816;SDS011;6979;52.116;5.286;2023-06-26T12:56:38;1.80;;;1.30;;
13816;SDS011;6979;52.116;5.286;2023-06-26T12:59:05;1.83;;;1.60;;
13816;SDS011;6979;52.116;5.286;2023-06-26T13:01:33;1.43;;;1.10;;
13816;SDS011;6979;52.116;5.286;2023-06-26T13:04:00;2.07;;;1.30;;
13816;SDS011;6979;52.116;5.286;2023-06-26T13:06:28;1.97;;;1.20;;
13816;SDS011;6979;52.116;5.286;2023-06-26T13:08:55;2.33;;;1.23;;
13816;SDS011;6979;52.116;5.286;2023-06-26T13:11:23;2.63;;;1.00;;
13816;SDS011;6979;52.116;5.286;2023-06-26T13:13:50;2.63;;;1.23;;
13816;SDS011;6979;52.116;5.286;2023-06-26T13:16:17;2.20;;;1.13;;
13816;SDS011;6979;52.116;5.286;2023-06-26T13:18:46;1.30;;;1.20;;
13816;SDS011;6979;52.116;5.286;2023-06-26T13:21:13;2.03;;;1.30;;
13816;SDS011;6979;52.116;5.286;2023-06-26T13:23:40;2.43;;;1.20;;
13816;SDS011;6979;52.116;5.286;2023-06-26T13:26:07;1.80;;;1.47;;
13816;SDS011;6979;52.116;5.286;2023-06-26T13:28:34;1.57;;;1.40;;
13816;SDS011;6979;52.116;5.286;2023-06-26T13:31:02;1.37;;;1.23;;
13816;SDS011;6979;52.116;5.286;2023-06-26T13:33:29;1.27;;;1.17;;
13816;SDS011;6979;52.116;5.286;2023-06-26T13:35:58;1.33;;;1.13;;
13816;SDS011;6979;52.116;5.286;2023-06-26T13:38:25;1.20;;;1.20;;
13816;SDS011;6979;52.116;5.286;2023-06-26T13:40:52;2.47;;;1.20;;
13816;SDS011;6979;52.116;5.286;2023-06-26T13:43:20;1.47;;;1.20;;
13816;SDS011;6979;52.116;5.286;2023-06-26T13:45:47;1.63;;;1.50;;
13816;SDS011;6979;52.116;5.286;2023-06-26T13:48:14;2.20;;;1.10;;
13816;SDS011;6979;52.116;5.286;2023-06-26T13:50:41;1.00;;;0.90;;
13816;SDS011;6979;52.116;5.286;2023-06-26T13:53:10;1.30;;;1.20;;
13816;SDS011;6979;52.116;5.286;2023-06-26T13:55:37;1.20;;;1.20;;
13816;SDS011;6979;52.116;5.286;2023-06-26T13:58:04;2.37;;;1.60;;
13816;SDS011;6979;52.116;5.286;2023-06-26T14:00:31;1.40;;;1.20;;
13816;SDS011;6979;52.116;5.286;2023-06-26T14:02:59;1.13;;;1.10;;
13816;SDS011;6979;52.116;5.286;2023-06-26T14:05:28;1.43;;;1.33;;
13816;SDS011;6979;52.116;5.286;2023-06-26T14:07:55;1.83;;;1.40;;
13816;SDS011;6979;52.116;5.286;2023-06-26T14:10:23;1.27;;;0.90;;
13816;SDS011;6979;52.116;5.286;2023-06-26T14:12:50;1.53;;;1.03;;
13816;SDS011;6979;52.116;5.286;2023-06-26T14:15:17;2.00;;;1.37;;
13816;SDS011;6979;52.116;5.286;2023-06-26T14:17:44;1.20;;;1.10;;
13816;SDS011;6979;52.116;5.286;2023-06-26T14:20:12;3.00;;;1.40;;
13816;SDS011;6979;52.116;5.286;2023-06-26T14:22:39;1.17;;;1.07;;
13816;SDS011;6979;52.116;5.286;2023-06-26T14:25:06;1.47;;;1.00;;
13816;SDS011;6979;52.116;5.286;2023-06-26T14:27:35;1.73;;;1.20;;
13816;SDS011;6979;52.116;5.286;2023-06-26T14:30:03;3.07;;;2.43;;
13816;SDS011;6979;52.116;5.286;2023-06-26T14:32:32;4.83;;;4.53;;
13816;SDS011;6979;52.116;5.286;2023-06-26T14:34:59;1.67;;;1.57;;
13816;SDS011;6979;52.116;5.286;2023-06-26T14:37:26;1.30;;;1.20;;
13816;SDS011;6979;52.116;5.286;2023-06-26T14:39:55;1.23;;;1.10;;
13816;SDS011;6979;52.116;5.286;2023-06-26T14:42:22;1.43;;;1.33;;
13816;SDS011;6979;52.116;5.286;2023-06-26T14:44:50;1.43;;;1.17;;
13816;SDS011;6979;52.116;5.286;2023-06-26T14:47:17;1.50;;;1.20;;
13816;SDS011;6979;52.116;5.286;2023-06-26T14:49:44;1.03;;;1.00;;
13816;SDS011;6979;52.116;5.286;2023-06-26T14:52:11;1.67;;;1.30;;
13816;SDS011;6979;52.116;5.286;2023-06-26T14:54:38;2.40;;;1.27;;
13816;SDS011;6979;52.116;5.286;2023-06-26T14:57:06;2.57;;;1.23;;
13816;SDS011;6979;52.116;5.286;2023-06-26T14:59:33;1.20;;;1.20;;
13816;SDS011;6979;52.116;5.286;2023-06-26T15:02:01;1.43;;;1.33;;
13816;SDS011;6979;52.116;5.286;2023-06-26T15:04:28;2.40;;;1.33;;
13816;SDS011;6979;52.116;5.286;2023-06-26T15:06:56;1.07;;;1.07;;
13816;SDS011;6979;52.116;5.286;2023-06-26T15:09:25;0.80;;;0.80;;
13816;SDS011;6979;52.116;5.286;2023-06-26T15:11:54;1.47;;;1.10;;